Downloads

-JavaCPC -demo -emu -j-cpc_ani -tools 0-9 A B C D E F G H I J K L M N O P Q R S T U V W X Y Z ZZZ_UNK roms
FILEDATESIZEDLs
KTris by Richard Wilson (PD).zip 2017-04-21 16:14 2 Kb204
Kaiser (G) (19xx).zip 2017-04-21 16:13 91 Kb223
Kane & Nebulus & Renaud - Marche a l'Ombre.zip 2017-04-21 16:13 95 Kb123
Kane (UK) (1986).zip 2017-04-21 16:13 28 Kb194
Kane (UK) (1986) [a1].zip 2017-04-21 16:13 80 Kb205
Kane (UK) (1986) [a2].zip 2017-04-21 16:13 38 Kb189
Kane (UK) (1986) [t1].zip 2017-04-21 16:13 38 Kb206
Karateka (F) (1986).zip 2017-04-21 16:13 50 Kb201
Karateka (F) (1986) [f1].zip 2017-04-21 16:13 50 Kb202
Karateka (F) (1986) [t1].zip 2017-04-21 16:13 50 Kb199
Karateka (F) (1990).zip 2017-04-21 16:13 49 Kb201
Karateka (F) (1990) [t1].zip 2017-04-21 16:13 49 Kb194
Karateka (F).dsk 2017-04-21 16:13 192 Kb204
Karl's Treasure Hunt (UK) (1984).zip 2017-04-21 16:13 11 Kb196
Karl's Treasure Hunt (UK) (1984) [a1].zip 2017-04-21 16:13 84 Kb195
Karl's Treasure Hunt (UK) (1984) [a2].zip 2017-04-21 16:13 11 Kb189
Karnov (E) - Disk 1A.dsk 2017-04-21 16:13 214 Kb193
Karnov (E) - Disk 1B.dsk 2017-04-21 16:13 214 Kb191
Karnov (UK) (1988) (Disk 1 of 2).zip 2017-04-21 16:13 73 Kb186
Karnov (UK) (1988) (Disk 1 of 2) [a1].zip 2017-04-21 16:13 56 Kb181
Karnov (UK) (1988) (Disk 1 of 2) [t1].zip 2017-04-21 16:13 159 Kb198
Karnov (UK) (1988) (Disk 1 of 2) [t2].zip 2017-04-21 16:13 73 Kb182
Karnov (UK) (1988) (Disk 2 of 2).zip 2017-04-21 16:13 62 Kb190
Karnov (UK) (1988) (Disk 2 of 2) [a1].zip 2017-04-21 16:13 105 Kb189
Karnov (UK) (1988) (Disk 2 of 2) [t2].zip 2017-04-21 16:13 62 Kb221
Kat Trap (E).dsk 2017-04-21 16:13 91 Kb189
Kat Trap (UK) (1987).zip 2017-04-21 16:13 34 Kb194
Keep Yourself Alive (F) (1987).zip 2017-04-21 16:13 19 Kb198
Kenny Dalglish Soccer Manager (E).cdt 2017-04-21 16:13 57 Kb206
Kenny Dalglish Soccer Manager (UK) (1989).zip 2017-04-21 16:13 25 Kb191
Kenny Dalglish Soccer Match (UK) (1990).zip 2017-04-21 16:13 29 Kb191
Kentilla (UK) (1985).zip 2017-04-21 16:13 23 Kb195
Kentilla (UK) (1985) [a1].zip 2017-04-21 16:13 30 Kb195
Kentucky Racing (E).cdt 2017-04-21 16:13 45 Kb201
Kentucky Racing (UK) (1990).zip 2017-04-21 16:13 24 Kb188
Kentucky Racing (UK) (1990) [f1].zip 2017-04-21 16:13 24 Kb196
Kessia (F) (19xx).zip 2017-04-21 16:13 72 Kb190
Kettle (E).dsk 2017-04-21 16:13 193 Kb188
Kettle (UK) (1986).zip 2017-04-21 16:13 21 Kb198
Kevin Thacker's CPC Guide (UK) (19xx) (PD) (Disk 1 of 2).zip 2017-04-21 16:13 47 Kb184
Kevin Thacker's CPC Guide (UK) (19xx) (PD) (Disk 2 of 2).zip 2017-04-21 16:13 41 Kb188
Key Factor, The (UK) (1985).zip 2017-04-21 16:13 13 Kb192
Kick Off (UK,F,G,S,I) (1990).zip 2017-04-21 16:13 27 Kb192
Kick Off (UK,F,G,S,I) (1990) [a1].zip 2017-04-21 16:13 131 Kb188
Kick Off (UK,F,G,S,I) (1990) [a2].zip 2017-04-21 16:13 31 Kb184
Kick Off 2 (E) - Disk 1A.dsk 2017-04-21 16:13 178 Kb204
Kick Off 2 (E) - Disk 1B.dsk 2017-04-21 16:13 178 Kb196
Kick Off 2 (F) (1990).zip 2017-04-21 16:13 68 Kb192
Kick Off 2 (F) (1990) [a1].zip 2017-04-21 16:13 68 Kb194
Kikstart II (UK) (1988).zip 2017-04-21 16:13 24 Kb194
Kikstart II (UK) (1988) [a1].zip 2017-04-21 16:13 23 Kb200
Killapede (UK) (1986).zip 2017-04-21 16:13 26 Kb189
Killapede (UK) (1986) [a1].zip 2017-04-21 16:13 26 Kb186
Killapede (UK) (1986) [a2].zip 2017-04-21 16:13 32 Kb199
Killapede (UK) (1986) [a3].zip 2017-04-21 16:13 30 Kb221
Killed Until Dead (UK) (1987) (Disk 1 of 2).zip 2017-04-21 16:13 50 Kb180
Killed Until Dead (UK) (1987) (Disk 2 of 2).zip 2017-04-21 16:13 62 Kb186
Killer Ball (UK) (1991).zip 2017-04-21 16:14 103 Kb188
Killer Ball (UK) (1991) [a1].zip 2017-04-21 16:13 103 Kb188
Killer Ball (UK) (1991) [a2].zip 2017-04-21 16:13 76 Kb187
Killer Ball (UK) (1991) [a3].zip 2017-04-21 16:13 96 Kb183
Killer Cobra (E).cdt 2017-04-21 16:14 49 Kb189
Killer Cobra (UK) (1987).zip 2017-04-21 16:14 27 Kb190
Killer Cobra (UK) (1987) [a1].zip 2017-04-21 16:14 27 Kb189
Killer Cobra (UK) (1987) [a2].zip 2017-04-21 16:14 31 Kb184
Killer Gorilla & Knight Lore & Laserwarp & Molecule Man & Zaxx (F).zip 2017-04-21 16:14 82 Kb122
Killer Gorilla (UK) (1984).zip 2017-04-21 16:14 19 Kb191
Killer Gorilla (UK) (1984) [a1].zip 2017-04-21 16:14 19 Kb197
Killer Gorilla (UK) (1984) [a2].zip 2017-04-21 16:14 15 Kb200
Killer Gorilla (UK) (1984) [a3].zip 2017-04-21 16:14 18 Kb191
Killer Gorilla (UK) (1984) [b1].zip 2017-04-21 16:14 19 Kb190
Killer Gorilla (UK) (1984) [b2].zip 2017-04-21 16:14 19 Kb192
Killer Ring (UK) (1987).zip 2017-04-21 16:14 16 Kb194
Killer Ring (UK) (1987) [a1].zip 2017-04-21 16:14 16 Kb195
Kiloroid (UK) (19xx).zip 2017-04-21 16:14 2 Kb187
Kim (F) (1986).zip 2017-04-21 16:14 9 Kb190
Kinetic (UK) (1987).zip 2017-04-21 16:14 35 Kb187
Kinetic (UK) (1987) [a1].zip 2017-04-21 16:14 36 Kb193
Kinetic (UK) (1987) [a2].zip 2017-04-21 16:14 35 Kb196
Kinetik (E).dsk 2017-04-21 16:14 195 Kb205
Kingdom of Hamil (UK) (1987).zip 2017-04-21 16:14 57 Kb188
Kingdoms (UK) (1985).zip 2017-04-21 16:14 5 Kb188
Kit de Telechargement - Telecharge Amstrad CPC (F).dsk 2017-04-21 16:14 217 Kb197
Kit de Telechargement pour Amstrad CPC (F).dsk 2017-04-21 16:14 191 Kb212
Klax & Meynaumede (F) & Nervous Break Down (F) & Skweek.zip 2017-04-21 16:14 97 Kb123
Klax (E).dsk 2017-04-21 16:14 172 Kb193
Klax (UK) (1990) (CPM).zip 2017-04-21 16:14 44 Kb185
Klax (UK) (1990) (CPM) [a1].zip 2017-04-21 16:14 44 Kb201
Klax (UK) (1990) (CPM Version).zip 2017-04-21 16:14 43 Kb184
Klax (UK) (1990) (CPM Version) [a1].zip 2017-04-21 16:14 43 Kb192
Klax (UK) (1990) (Cart).zip 2017-04-21 16:14 41 Kb197
Klax (UK) (1990).zip 2017-04-21 16:14 42 Kb185
Klax (UK) (1990) [a1].zip 2017-04-21 16:14 42 Kb198
Klax (UK) (1990) [h1].zip 2017-04-21 16:14 52 Kb188
Klax (UK) (1990) [h2].zip 2017-04-21 16:14 54 Kb193
Knaves and thou Prisoners (UK) (19xx).zip 2017-04-21 16:14 8 Kb183
Knight Force (F) (1989) (Disk 1 of 2).zip 2017-04-21 16:14 54 Kb189
Knight Force (F) (1989) (Disk 1 of 2) [t1].zip 2017-04-21 16:14 55 Kb184
Knight Force (F) (1989) (Disk 1 of 2) [t2] & Power Drift.zip 2017-04-21 16:14 108 Kb114
Knight Force (F) (1989) (Disk 1 of 2) [t2].zip 2017-04-21 16:14 75 Kb182
Knight Force (F) (1989) (Disk 2 of 2).zip 2017-04-21 16:14 76 Kb191
Knight Force (F) - Disk 1A.dsk 2017-04-21 16:14 456 Kb193
Knight Force (F) - Disk 1B.dsk 2017-04-21 16:14 627 Kb193
Knight Games (E) - Side A.cdt 2017-04-21 16:14 166 Kb200
Knight Games (E) - Side B.cdt 2017-04-21 16:14 142 Kb188
Knight Games (UK) (1986) (Disk 1 of 2).zip 2017-04-21 16:14 88 Kb192
Knight Games (UK) (1986) (Disk 1 of 2) [a1].zip 2017-04-21 16:14 83 Kb183
Knight Games (UK) (1986) (Disk 1 of 2) [a2].zip 2017-04-21 16:14 83 Kb182
Knight Games (UK) (1986) (Disk 1 of 2) [a3].zip 2017-04-21 16:14 103 Kb176
Knight Games (UK) (1986) (Disk 2 of 2).zip 2017-04-21 16:14 94 Kb194
Knight Games (UK) (1986) (Disk 2 of 2) [a1].zip 2017-04-21 16:14 76 Kb183
Knight Games (UK) (1986) (Disk 2 of 2) [a2].zip 2017-04-21 16:14 79 Kb181
Knight Games (UK) (1986) (Disk 2 of 2) [a3].zip 2017-04-21 16:14 109 Kb183
Knight Games (UK) (1986) [f1][t1].zip 2017-04-21 16:14 179 Kb188
Knight Lore (E).cdt 2017-04-21 16:14 42 Kb192
Knight Lore (UK) (1984).zip 2017-04-21 16:14 25 Kb197
Knight Lore (UK) (1984) [a1].zip 2017-04-21 16:14 25 Kb190
Knight Lore (UK) (1984) [a2].zip 2017-04-21 16:14 25 Kb196
Knight Moves (F) (19xx) (Disk 1 of 2).zip 2017-04-21 16:14 60 Kb189
Knight Moves (F) (19xx) (Disk 2 of 2).zip 2017-04-21 16:14 83 Kb191
Knight Orc (E) - Disk 1A.dsk 2017-04-21 16:14 194 Kb193
Knight Orc (E) - Disk 1B.dsk 2017-04-21 16:14 199 Kb194
Knight Orc (UK) (1987) (Disk 1 of 2).zip 2017-04-21 16:14 119 Kb201
Knight Orc (UK) (1987) (Disk 2 of 2).zip 2017-04-21 16:14 110 Kb194
Knight Rider (E).cdt 2017-04-21 16:14 45 Kb198
Knight Rider (UK) (1986).zip 2017-04-21 16:14 20 Kb189
Knight Rider (UK) (1986) [h1].zip 2017-04-21 16:14 32 Kb188
Knight Rider (UK) (1986) [h2].zip 2017-04-21 16:14 21 Kb195
Knight Tyme (E).cdt 2017-04-21 16:14 57 Kb198
Knight Tyme (UK) (1986).zip 2017-04-21 16:14 31 Kb198
Knight Tyme (UK) (1986) [a1].zip 2017-04-21 16:14 31 Kb194
Knight Tyme (UK) (1986) [t1].zip 2017-04-21 16:14 31 Kb185
Knightmare (E).dsk 2017-04-21 16:14 213 Kb205
Knightmare (UK) (1987).zip 2017-04-21 16:14 29 Kb188
Knightmare (UK) (1987) [a1].zip 2017-04-21 16:14 30 Kb188
Knightmare (UK) (1987) [a2].zip 2017-04-21 16:14 30 Kb196
Knightmare (UK) (1987) [t1].zip 2017-04-21 16:14 33 Kb191
Know (G).dsk 2017-04-21 16:14 192 Kb208
Kobayashi Naru (UK) (19xx).zip 2017-04-21 16:14 31 Kb201
Kobayashi Naru (UK) (1987).zip 2017-04-21 16:14 31 Kb205
Kobayashi Naru (UK) (1987) [a1].zip 2017-04-21 16:14 31 Kb191
Kobayashi Naru (UK) (1987) [a2].zip 2017-04-21 16:14 48 Kb211
Kokotoni Wilf (UK) (19xx).zip 2017-04-21 16:14 137 Kb199
Kokotoni Wilf (UK) (19xx) [a1].zip 2017-04-21 16:14 35 Kb198
Kokotoni Wilf (UK) (19xx) [f1][t1].zip 2017-04-21 16:14 37 Kb190
Konami's Golf (UK) (1986).zip 2017-04-21 16:14 24 Kb187
Konami's Golf (UK) (1986) [a1].zip 2017-04-21 16:14 24 Kb191
Konami's Golf (UK) (1986) [a2].zip 2017-04-21 16:14 26 Kb193
Konami Coin-op Hits (UK) (19xx) (Disk 1 of 2).zip 2017-04-21 16:14 50 Kb193
Konami Coin-op Hits (UK) (19xx) (Disk 1 of 2) [a1].zip 2017-04-21 16:14 50 Kb180
Konami Coin-op Hits (UK) (19xx) (Disk 2 of 2).zip 2017-04-21 16:14 65 Kb184
Konami Coin-op Hits (UK) (19xx) (Disk 2 of 2) [a1].zip 2017-04-21 16:14 65 Kb203
Konami Coin-op Hits (UK) (19xx) (Disk 2 of 2) [a2].zip 2017-04-21 16:14 65 Kb184
Kong Strikes Back (UK) (1985).zip 2017-04-21 16:14 21 Kb206
Kong Strikes Back (UK) (1985) [a1].zip 2017-04-21 16:14 21 Kb203
Kong Strikes Back (UK) (1985) [a2].zip 2017-04-21 16:14 23 Kb192
Koronis Rift (E).dsk 2017-04-21 16:14 186 Kb198
Koronis Rift (UK) (1987).zip 2017-04-21 16:14 57 Kb195
Krakout (E).cdt 2017-04-21 16:14 64 Kb205
Krakout (E).dsk 2017-04-21 16:14 171 Kb198
Krakout (UK) (1987).zip 2017-04-21 16:14 31 Kb197
Krakout (UK) (1987) [h1].zip 2017-04-21 16:14 34 Kb196
Kristal (F).dsk 2017-04-21 16:14 191 Kb199
Kristal (UK) (1985).zip 2017-04-21 16:14 16 Kb202
Kristax (UK) (1989).zip 2017-04-21 16:14 9 Kb200
Krypton Factor (UK) (1987) (Disk 1 of 2).zip 2017-04-21 16:14 52 Kb185
Krypton Factor (UK) (1987) (Disk 1 of 2) [a1].zip 2017-04-21 16:14 47 Kb194
Krypton Factor (UK) (1987) (Disk 2 of 2).zip 2017-04-21 16:14 5 Kb192
Krypton Factor (UK) (1987) (Disk 2 of 2) [a1].zip 2017-04-21 16:14 21 Kb189
Kung-Fu (UK) (1986).zip 2017-04-21 16:14 19 Kb193
Kung-Fu Master (E).dsk 2017-04-21 16:14 191 Kb189
Kung-Fu Master (UK) (1986).zip 2017-04-21 16:14 28 Kb204
Kung-Fu Master (UK) (1986) [h1].zip 2017-04-21 16:14 22 Kb194
Kwah (UK) (1987).zip 2017-04-21 16:14 36 Kb181
Kwik Snax (E).cdt 2017-04-21 16:14 65 Kb207
Kwik Snax (UK) (1990).zip 2017-04-21 16:14 22 Kb188
Kwik Snax (UK) (1990) [f1].zip 2017-04-21 16:14 33 Kb201
Kwik Snax (UK) (1990) [h1].zip 2017-04-21 16:14 41 Kb194
Kwik Snax (UK) (1990) [t1].zip 2017-04-21 16:14 33 Kb196
kobayashi Naru (E).cdt 2017-04-21 16:14 74 Kb196
180 Files
-JavaCPC -demo -emu -j-cpc_ani -tools 0-9 A B C D E F G H I J K L M N O P Q R S T U V W X Y Z ZZZ_UNK roms